Time;durP1;ratioP1;P1;durP2;ratioP2;P2;SDS_P1;SDS_P2;PMS_P1;PMS_P2;Temp;Humidity;BMP_temperature;BMP_pressure;BME280_temperature;BME280_humidity;BME280_pressure;Samples;Min_cycle;Max_cycle;Signal;HPM_P1;HPM_P2
2022/09/14 00:01:36;;;;;;;2.25;0.60;;;12.70;99.90;;;;;;5051491;28;20029;-75
2022/09/14 00:04:13;;;;;;;2.83;0.50;;;12.80;99.90;;;;;;5052305;28;20108;-76
2022/09/14 00:06:41;;;;;;;1.15;0.60;;;12.80;99.90;;;;;;5051024;28;20031;-75
2022/09/14 00:09:19;;;;;;;3.22;1.00;;;12.80;99.90;;;;;;5052040;28;20025;-76
2022/09/14 00:11:48;;;;;;;5.47;0.80;;;12.80;99.90;;;;;;5051880;28;20017;-76
2022/09/14 00:14:17;;;;;;;3.95;0.77;;;12.90;99.90;;;;;;5049039;28;20079;-76
2022/09/14 00:16:45;;;;;;;2.15;0.75;;;12.90;99.90;;;;;;5051959;28;20154;-76
2022/09/14 00:19:24;;;;;;;1.88;0.50;;;12.90;99.90;;;;;;5050228;28;20035;-76
2022/09/14 00:21:58;;;;;;;2.65;0.70;;;12.80;99.90;;;;;;5051423;28;20035;-77
2022/09/14 00:24:29;;;;;;;4.82;0.57;;;12.80;99.90;;;;;;5052477;28;20021;-76
2022/09/14 00:26:58;;;;;;;1.08;0.57;;;12.80;99.90;;;;;;5049940;28;20033;-77
2022/09/14 00:29:25;;;;;;;1.00;0.45;;;12.90;99.90;;;;;;5049679;28;20394;-77
2022/09/14 00:31:53;;;;;;;3.05;0.90;;;13.10;99.90;;;;;;5051937;28;20053;-75
2022/09/14 00:34:21;;;;;;;1.30;0.60;;;13.20;99.90;;;;;;5051895;28;20013;-75
2022/09/14 00:36:51;;;;;;;1.88;0.40;;;13.30;99.90;;;;;;5052255;28;20013;-76
2022/09/14 00:39:22;;;;;;;1.80;0.63;;;13.40;99.90;;;;;;5049890;28;20045;-76
2022/09/14 00:41:51;;;;;;;2.25;0.70;;;13.60;99.90;;;;;;5051939;28;20047;-76
2022/09/14 00:44:19;;;;;;;3.13;0.47;;;13.70;99.90;;;;;;5052269;28;20013;-76
2022/09/14 00:46:49;;;;;;;2.42;0.45;;;13.70;99.90;;;;;;5052071;28;20496;-76
2022/09/14 00:49:24;;;;;;;6.57;0.50;;;13.80;99.90;;;;;;5053115;28;20059;-76
2022/09/14 00:52:19;;;;;;;2.10;0.80;;;13.90;99.90;;;;;;5055477;28;20031;-76
2022/09/14 00:54:54;;;;;;;0.75;0.45;;;14.00;99.90;;;;;;5054465;28;20116;-76
2022/09/14 00:57:23;;;;;;;2.80;0.50;;;14.10;99.90;;;;;;5053730;28;20021;-76
2022/09/14 00:59:53;;;;;;;3.30;0.57;;;14.10;99.90;;;;;;5055553;28;20470;-76
2022/09/14 01:02:25;;;;;;;5.60;0.73;;;14.10;99.90;;;;;;5054785;28;20128;-77
2022/09/14 01:04:53;;;;;;;2.83;0.65;;;14.20;99.90;;;;;;5054907;28;20013;-77
2022/09/14 01:07:48;;;;;;;2.17;0.45;;;14.30;99.90;;;;;;5054800;28;20383;-77
2022/09/14 01:10:19;;;;;;;4.40;0.90;;;14.20;99.90;;;;;;5055170;28;20099;-76
2022/09/14 01:13:09;;;;;;;2.20;0.52;;;14.20;99.90;;;;;;5054789;28;20021;-77
2022/09/14 01:15:47;;;;;;;1.15;0.50;;;14.10;99.90;;;;;;5053108;28;20056;-76
2022/09/14 01:18:47;;;;;;;2.45;0.70;;;14.20;99.90;;;;;;5052605;28;20024;-77
2022/09/14 01:21:24;;;;;;;1.95;0.50;;;14.40;99.90;;;;;;5052681;28;20063;-76
2022/09/14 01:24:05;;;;;;;1.27;0.50;;;14.50;99.90;;;;;;5055259;28;20045;-76
2022/09/14 01:26:47;;;;;;;4.13;0.90;;;14.60;99.90;;;;;;5055327;28;20025;-76
2022/09/14 01:29:25;;;;;;;2.25;0.60;;;14.70;99.90;;;;;;5054568;28;20017;-78
2022/09/14 01:32:28;;;;;;;2.65;0.80;;;14.70;99.90;;;;;;5051573;28;20040;-74
2022/09/14 01:35:21;;;;;;;2.38;0.57;;;14.60;99.90;;;;;;5045999;28;20432;-75
2022/09/14 01:38:00;;;;;;;3.58;0.65;;;14.50;99.90;;;;;;5053523;28;20943;-74
2022/09/14 01:40:36;;;;;;;4.22;0.60;;;14.50;99.90;;;;;;5054226;28;20474;-75
2022/09/14 01:43:13;;;;;;;3.97;0.80;;;14.30;99.90;;;;;;5054270;28;20481;-75
2022/09/14 01:45:52;;;;;;;4.07;0.73;;;14.30;99.90;;;;;;5052630;28;20029;-75
2022/09/14 01:48:44;;;;;;;2.78;0.57;;;14.40;99.90;;;;;;5052704;28;20021;-75
2022/09/14 01:51:23;;;;;;;2.33;0.47;;;14.40;99.90;;;;;;5054113;28;20389;-75
2022/09/14 01:53:59;;;;;;;2.42;0.47;;;14.30;99.90;;;;;;5054593;28;20032;-75
2022/09/14 01:56:36;;;;;;;2.70;0.85;;;14.30;99.90;;;;;;5054182;28;20024;-76
2022/09/14 01:59:13;;;;;;;1.15;0.43;;;14.30;99.90;;;;;;5052027;28;20022;-76
2022/09/14 02:01:55;;;;;;;3.53;0.70;;;14.30;99.90;;;;;;5052225;28;20095;-75
2022/09/14 02:04:33;;;;;;;2.08;0.80;;;14.40;99.90;;;;;;5052402;28;20043;-75
2022/09/14 02:07:02;;;;;;;0.90;0.30;;;14.60;99.90;;;;;;5052287;28;20112;-75
2022/09/14 02:09:29;;;;;;;0.93;0.50;;;14.80;99.90;;;;;;5053360;28;20025;-75
2022/09/14 02:12:00;;;;;;;1.55;0.55;;;14.90;99.90;;;;;;5053651;28;20021;-75
2022/09/14 02:14:29;;;;;;;1.38;0.43;;;15.20;99.90;;;;;;5053824;28;20067;-75
2022/09/14 02:16:57;;;;;;;2.65;0.57;;;15.20;99.90;;;;;;5050475;28;20067;-75
2022/09/14 02:19:28;;;;;;;3.45;0.50;;;15.40;99.90;;;;;;5053625;28;20013;-74
2022/09/14 02:21:56;;;;;;;0.30;0.30;;;15.50;99.90;;;;;;5052538;28;20017;-74
2022/09/14 02:24:24;;;;;;;2.35;0.90;;;15.60;99.90;;;;;;5051401;28;20104;-75
2022/09/14 02:26:53;;;;;;;3.50;0.85;;;15.60;99.90;;;;;;5050516;28;20032;-74
2022/09/14 02:29:21;;;;;;;1.35;0.55;;;15.60;99.90;;;;;;5051766;28;20025;-75
2022/09/14 02:32:04;;;;;;;1.17;0.50;;;15.60;99.90;;;;;;5051584;28;20048;-74
2022/09/14 02:35:22;;;;;;;1.10;0.50;;;15.80;99.90;;;;;;5050574;28;20027;-76
2022/09/14 02:38:30;;;;;;;0.50;0.30;;;15.70;99.90;;;;;;5007546;28;20564;-76
2022/09/14 02:41:17;;;;;;;3.67;0.80;;;15.60;99.90;;;;;;5054956;28;20020;-76
2022/09/14 02:44:04;;;;;;;2.35;0.50;;;15.50;99.90;;;;;;5054138;28;20405;-75
2022/09/14 02:46:46;;;;;;;1.60;0.60;;;15.60;99.90;;;;;;5034304;28;20116;-76
2022/09/14 02:49:46;;;;;;;1.10;0.50;;;15.80;99.90;;;;;;5041105;28;20013;-76
2022/09/14 02:52:33;;;;;;;4.65;0.40;;;15.80;99.90;;;;;;5047470;28;20033;-74
2022/09/14 02:55:10;;;;;;;1.10;0.60;;;15.80;99.90;;;;;;5062316;28;20477;-74
2022/09/14 02:58:06;;;;;;;2.03;0.45;;;15.70;99.90;;;;;;5068009;28;20031;-74
2022/09/14 03:00:40;;;;;;;2.30;0.43;;;15.60;99.90;;;;;;5054706;28;20021;-75
2022/09/14 03:03:11;;;;;;;0.57;0.30;;;15.60;99.90;;;;;;5053498;28;20115;-75
2022/09/14 03:05:39;;;;;;;5.80;0.45;;;15.60;99.90;;;;;;5053417;28;20305;-76
2022/09/14 03:08:07;;;;;;;5.03;0.50;;;15.70;99.90;;;;;;5053378;28;20086;-73
2022/09/14 03:10:36;;;;;;;4.28;0.40;;;15.60;99.90;;;;;;5053026;28;20025;-74
2022/09/14 03:13:04;;;;;;;1.25;0.30;;;15.60;99.90;;;;;;5053506;28;20074;-75
2022/09/14 03:15:32;;;;;;;1.40;0.57;;;15.50;99.90;;;;;;5052966;28;20127;-75
2022/09/14 03:17:59;;;;;;;2.33;0.32;;;15.50;99.90;;;;;;5053177;28;20367;-76
2022/09/14 03:20:30;;;;;;;1.83;0.90;;;15.40;99.90;;;;;;5053450;28;20021;-74
2022/09/14 03:23:02;;;;;;;1.95;0.45;;;15.30;99.90;;;;;;5053197;28;20381;-74
2022/09/14 03:25:30;;;;;;;0.75;0.30;;;15.30;99.90;;;;;;5053123;28;20032;-75
2022/09/14 03:28:00;;;;;;;0.73;0.22;;;15.30;99.90;;;;;;5053486;28;20100;-75
2022/09/14 03:30:28;;;;;;;1.58;0.50;;;15.20;99.90;;;;;;5071089;28;20028;-75
2022/09/14 03:32:57;;;;;;;0.85;0.40;;;15.20;99.90;;;;;;5071361;28;20031;-74
2022/09/14 03:35:25;;;;;;;5.13;0.40;;;15.20;99.90;;;;;;5071991;28;20479;-74
2022/09/14 03:37:53;;;;;;;3.13;0.70;;;15.10;99.90;;;;;;5062186;28;20028;-74
2022/09/14 03:40:20;;;;;;;8.50;0.82;;;15.40;99.90;;;;;;5070151;28;20465;-75
2022/09/14 03:42:50;;;;;;;4.82;0.65;;;15.50;99.90;;;;;;5068438;28;20025;-74
2022/09/14 03:45:19;;;;;;;0.70;0.30;;;15.40;99.90;;;;;;5039969;28;20409;-76
2022/09/14 03:47:48;;;;;;;1.90;0.30;;;15.30;99.90;;;;;;5064258;28;20037;-75
2022/09/14 03:50:18;;;;;;;0.75;0.30;;;15.30;99.90;;;;;;5050733;28;20021;-75
2022/09/14 03:52:45;;;;;;;1.38;0.30;;;15.30;99.90;;;;;;5051759;28;20091;-74
2022/09/14 03:55:13;;;;;;;1.02;0.55;;;15.30;99.90;;;;;;5050019;28;20021;-75
2022/09/14 03:57:41;;;;;;;1.55;0.38;;;15.20;99.90;;;;;;5051461;28;20025;-75
2022/09/14 04:00:11;;;;;;;1.38;0.60;;;15.10;99.90;;;;;;5052223;28;20131;-75
2022/09/14 04:02:39;;;;;;;2.15;0.60;;;15.10;99.90;;;;;;5049725;28;20040;-75
2022/09/14 04:05:07;;;;;;;1.23;0.47;;;14.90;99.90;;;;;;5049415;28;20026;-74
2022/09/14 04:07:36;;;;;;;1.30;0.40;;;14.90;99.90;;;;;;5047918;28;20436;-74
2022/09/14 04:10:05;;;;;;;0.52;0.40;;;14.90;99.90;;;;;;5049562;28;20402;-75
2022/09/14 04:12:37;;;;;;;1.45;0.50;;;14.80;99.90;;;;;;5050245;28;20068;-74
2022/09/14 04:15:07;;;;;;;1.42;0.40;;;14.80;99.90;;;;;;5051325;28;20025;-75
2022/09/14 04:17:35;;;;;;;1.20;0.40;;;14.80;99.90;;;;;;5050930;28;20025;-75
2022/09/14 04:20:03;;;;;;;1.05;0.60;;;14.80;99.90;;;;;;5053037;28;20017;-75
2022/09/14 04:22:31;;;;;;;1.48;0.60;;;14.80;99.90;;;;;;5053544;28;20029;-75
2022/09/14 04:24:59;;;;;;;2.88;0.40;;;14.80;99.90;;;;;;5056797;28;20036;-75
2022/09/14 04:27:26;;;;;;;2.30;0.50;;;14.90;99.90;;;;;;5056696;28;20508;-74
2022/09/14 04:29:54;;;;;;;3.17;0.60;;;15.00;99.90;;;;;;5056743;28;20029;-74
2022/09/14 04:32:22;;;;;;;3.42;0.50;;;15.00;99.90;;;;;;5056768;28;20543;-74
2022/09/14 04:34:50;;;;;;;1.45;0.40;;;15.00;99.90;;;;;;5056510;28;20373;-74
2022/09/14 04:37:18;;;;;;;1.10;0.40;;;15.30;99.90;;;;;;5056379;28;20066;-75
2022/09/14 04:39:45;;;;;;;2.45;0.60;;;15.50;99.90;;;;;;5056948;28;20044;-76
2022/09/14 04:42:13;;;;;;;0.80;0.30;;;15.80;99.90;;;;;;5056490;28;20021;-76
2022/09/14 04:44:41;;;;;;;1.40;0.43;;;15.90;99.90;;;;;;5055843;28;20021;-76
2022/09/14 04:47:09;;;;;;;1.92;0.20;;;15.80;99.90;;;;;;5055849;28;20474;-76
2022/09/14 04:49:37;;;;;;;0.55;0.35;;;15.60;99.90;;;;;;5054706;28;20389;-76
2022/09/14 04:52:05;;;;;;;0.75;0.47;;;15.60;99.90;;;;;;5055780;28;20031;-76
2022/09/14 04:54:32;;;;;;;3.70;1.10;;;15.70;99.90;;;;;;5055905;28;20028;-75
2022/09/14 04:57:00;;;;;;;0.40;0.30;;;15.80;99.90;;;;;;5056275;28;20493;-75
2022/09/14 04:59:28;;;;;;;1.08;0.40;;;15.90;99.90;;;;;;5056418;28;20459;-76
2022/09/14 05:01:55;;;;;;;2.53;0.45;;;15.90;99.90;;;;;;5056220;28;20593;-75
2022/09/14 05:04:23;;;;;;;1.60;0.50;;;15.90;99.90;;;;;;5056953;28;20075;-75
2022/09/14 05:06:51;;;;;;;1.08;0.65;;;15.80;99.90;;;;;;5055968;28;20045;-75
2022/09/14 05:09:19;;;;;;;0.52;0.30;;;15.70;99.90;;;;;;5056134;28;20029;-75
2022/09/14 05:11:49;;;;;;;1.35;0.50;;;15.80;99.90;;;;;;5056012;28;20021;-75
2022/09/14 05:14:17;;;;;;;1.00;0.77;;;15.70;99.90;;;;;;5054717;28;20021;-75
2022/09/14 05:16:46;;;;;;;2.15;0.47;;;15.50;99.90;;;;;;5055743;28;20048;-75
2022/09/14 05:19:17;;;;;;;1.55;0.25;;;15.40;99.90;;;;;;5055950;28;20492;-75
2022/09/14 05:21:46;;;;;;;2.13;0.32;;;15.30;99.90;;;;;;5054487;28;20500;-75
2022/09/14 05:24:16;;;;;;;2.08;0.52;;;15.20;99.90;;;;;;5054540;28;20021;-75
2022/09/14 05:26:45;;;;;;;4.30;0.80;;;15.00;99.90;;;;;;5055879;28;20043;-75
2022/09/14 05:29:15;;;;;;;1.42;0.50;;;15.00;99.90;;;;;;5055846;28;20029;-75
2022/09/14 05:31:44;;;;;;;1.58;0.50;;;14.90;99.90;;;;;;5056047;28;20477;-75
2022/09/14 05:34:12;;;;;;;0.28;0.20;;;14.70;99.90;;;;;;5055591;28;20029;-74
2022/09/14 05:36:40;;;;;;;3.78;0.70;;;14.70;99.90;;;;;;5055540;28;20044;-74
2022/09/14 05:39:09;;;;;;;6.30;0.95;;;14.70;99.90;;;;;;5055622;28;20021;-77
2022/09/14 05:41:37;;;;;;;1.33;0.40;;;14.70;99.90;;;;;;5055664;28;20043;-76
2022/09/14 05:44:05;;;;;;;2.25;0.63;;;14.70;99.90;;;;;;5055647;28;20118;-75
2022/09/14 05:46:33;;;;;;;1.35;0.30;;;14.60;99.90;;;;;;5055397;28;20029;-74
2022/09/14 05:49:01;;;;;;;1.67;0.43;;;14.60;99.90;;;;;;5053616;28;20512;-75
2022/09/14 05:51:29;;;;;;;1.92;0.60;;;14.60;99.90;;;;;;5054950;28;20090;-75
2022/09/14 05:53:58;;;;;;;0.50;0.30;;;14.60;99.90;;;;;;5053999;28;20017;-75
2022/09/14 05:56:28;;;;;;;1.35;0.50;;;14.60;99.90;;;;;;5055165;28;20029;-75
2022/09/14 05:58:57;;;;;;;1.52;0.40;;;14.60;99.90;;;;;;5055424;28;20075;-75
2022/09/14 06:01:27;;;;;;;5.32;0.50;;;14.60;99.90;;;;;;5054939;28;20048;-75
2022/09/14 06:03:59;;;;;;;1.85;0.57;;;14.60;99.90;;;;;;5055161;28;20025;-75
2022/09/14 06:06:27;;;;;;;1.25;0.40;;;14.60;99.90;;;;;;5054730;28;20037;-74
2022/09/14 06:08:56;;;;;;;1.27;0.40;;;14.50;99.90;;;;;;5055162;28;20551;-75
2022/09/14 06:11:32;;;;;;;1.85;0.47;;;14.40;99.90;;;;;;5053965;28;20029;-75
2022/09/14 06:14:00;;;;;;;3.28;0.40;;;14.50;99.90;;;;;;5054875;28;20025;-74
2022/09/14 06:16:28;;;;;;;3.13;0.70;;;14.50;99.90;;;;;;5054392;28;20127;-74
2022/09/14 06:18:58;;;;;;;2.17;0.40;;;14.40;99.90;;;;;;5054788;28;20350;-74
2022/09/14 06:21:30;;;;;;;4.80;0.63;;;14.40;99.90;;;;;;5054159;28;20035;-74
2022/09/14 06:23:58;;;;;;;1.52;0.57;;;14.40;99.90;;;;;;5053955;28;20385;-75
2022/09/14 06:26:26;;;;;;;1.65;0.57;;;14.50;99.90;;;;;;5051024;28;20037;-76
2022/09/14 06:28:54;;;;;;;1.20;0.43;;;14.50;99.90;;;;;;5053479;28;20036;-76
2022/09/14 06:31:21;;;;;;;2.83;0.45;;;14.40;99.90;;;;;;5053516;28;20047;-75
2022/09/14 06:33:50;;;;;;;0.52;0.32;;;14.40;99.90;;;;;;5053529;28;20075;-75
2022/09/14 06:36:24;;;;;;;0.75;0.30;;;14.40;99.90;;;;;;5053650;28;20017;-76
2022/09/14 06:38:53;;;;;;;3.15;0.52;;;14.30;99.90;;;;;;5051402;28;20032;-75
2022/09/14 06:41:29;;;;;;;0.90;0.30;;;14.30;99.90;;;;;;5053884;28;20096;-75
2022/09/14 06:44:00;;;;;;;1.55;0.55;;;14.30;99.90;;;;;;5051585;28;20091;-75
2022/09/14 06:46:33;;;;;;;2.85;0.60;;;14.20;99.90;;;;;;5052965;28;20029;-75
2022/09/14 06:49:05;;;;;;;2.25;0.40;;;14.20;99.90;;;;;;5053573;28;20060;-75
2022/09/14 06:51:38;;;;;;;2.38;0.85;;;14.10;99.90;;;;;;5049898;28;20052;-75
2022/09/14 06:54:07;;;;;;;8.18;0.73;;;14.20;99.90;;;;;;5049719;28;20040;-75
2022/09/14 06:56:37;;;;;;;4.53;0.88;;;14.10;99.90;;;;;;5053473;28;20070;-75
2022/09/14 06:59:06;;;;;;;1.95;0.50;;;14.00;99.90;;;;;;5053678;28;20486;-75
2022/09/14 07:01:34;;;;;;;1.25;0.80;;;14.00;99.90;;;;;;5053837;28;20060;-75
2022/09/14 07:04:03;;;;;;;1.13;0.85;;;14.00;99.90;;;;;;5054181;28;20033;-75
2022/09/14 07:06:37;;;;;;;1.67;0.40;;;14.00;99.90;;;;;;5052241;28;20033;-75
2022/09/14 07:09:06;;;;;;;2.67;0.63;;;14.00;99.90;;;;;;5053654;28;20100;-75
2022/09/14 07:11:37;;;;;;;4.43;0.40;;;13.90;99.90;;;;;;5053890;28;20382;-75
2022/09/14 07:14:05;;;;;;;0.63;0.40;;;13.80;99.90;;;;;;5053929;28;20098;-75
2022/09/14 07:16:35;;;;;;;0.98;0.40;;;13.80;99.90;;;;;;5053507;28;20051;-74
2022/09/14 07:19:05;;;;;;;2.40;0.45;;;13.80;99.90;;;;;;5053808;28;20020;-74
2022/09/14 07:21:34;;;;;;;1.48;0.50;;;13.70;99.90;;;;;;5053656;28;20025;-75
2022/09/14 07:24:03;;;;;;;1.83;0.60;;;13.60;99.90;;;;;;5053298;28;20035;-75
2022/09/14 07:26:34;;;;;;;2.50;0.55;;;13.50;99.90;;;;;;5051843;28;20131;-75
2022/09/14 07:29:05;;;;;;;1.15;0.50;;;13.40;99.90;;;;;;5053041;28;20118;-75
2022/09/14 07:31:40;;;;;;;1.50;0.55;;;13.40;99.90;;;;;;5050394;28;20067;-75
2022/09/14 07:34:08;;;;;;;1.88;0.50;;;13.40;99.90;;;;;;5047366;28;20020;-75
2022/09/14 07:36:37;;;;;;;1.38;0.47;;;13.30;99.90;;;;;;5037362;28;20078;-76
2022/09/14 07:39:08;;;;;;;1.05;0.32;;;13.30;99.90;;;;;;5053291;28;20024;-74
2022/09/14 07:41:37;;;;;;;2.08;0.60;;;13.30;99.90;;;;;;5053332;28;20424;-74
2022/09/14 07:44:07;;;;;;;1.83;0.82;;;13.30;99.90;;;;;;5051801;28;20024;-75
2022/09/14 07:46:40;;;;;;;1.38;0.57;;;13.30;99.90;;;;;;5051438;28;20037;-75
2022/09/14 07:49:09;;;;;;;1.40;0.50;;;13.20;99.90;;;;;;5051970;28;20420;-75
2022/09/14 07:51:37;;;;;;;5.13;0.60;;;13.20;99.90;;;;;;5050642;28;20117;-75
2022/09/14 07:54:07;;;;;;;1.58;0.93;;;13.10;99.90;;;;;;5050789;28;20028;-75
2022/09/14 07:56:38;;;;;;;3.17;0.60;;;13.10;99.90;;;;;;5052164;28;20029;-75
2022/09/14 07:59:06;;;;;;;3.50;0.80;;;13.10;99.90;;;;;;5055963;28;20100;-75
2022/09/14 08:01:33;;;;;;;1.05;0.45;;;13.00;99.90;;;;;;5057206;28;20021;-75
2022/09/14 08:04:02;;;;;;;5.07;0.52;;;13.00;99.90;;;;;;5055344;28;20025;-74
2022/09/14 08:06:30;;;;;;;1.83;0.68;;;13.00;99.90;;;;;;5057059;28;20089;-74
2022/09/14 08:08:58;;;;;;;1.48;0.63;;;12.90;99.90;;;;;;5057008;28;20029;-75
2022/09/14 08:11:27;;;;;;;3.28;0.60;;;12.90;99.90;;;;;;5057154;28;20025;-75
2022/09/14 08:13:59;;;;;;;3.00;0.77;;;12.90;99.90;;;;;;5056659;28;20026;-74
2022/09/14 08:16:29;;;;;;;3.58;0.95;;;12.80;99.90;;;;;;5056719;28;20029;-75
2022/09/14 08:19:03;;;;;;;3.78;0.60;;;12.80;99.90;;;;;;5055359;28;20370;-75
2022/09/14 08:21:32;;;;;;;1.55;0.80;;;12.70;99.90;;;;;;5055304;28;20125;-75
2022/09/14 08:24:01;;;;;;;3.25;0.77;;;12.70;99.90;;;;;;5056668;28;20155;-76
2022/09/14 08:26:29;;;;;;;5.38;0.75;;;12.60;99.90;;;;;;5056727;28;20025;-75
2022/09/14 08:28:59;;;;;;;3.25;0.90;;;12.60;99.90;;;;;;5056466;28;20474;-75
2022/09/14 08:31:30;;;;;;;3.10;0.90;;;12.60;99.90;;;;;;5056728;28;20420;-75
2022/09/14 08:34:01;;;;;;;2.42;0.98;;;12.50;99.90;;;;;;5056425;28;20032;-75
2022/09/14 08:36:32;;;;;;;1.92;0.82;;;12.40;99.90;;;;;;5056579;28;20428;-75
2022/09/14 08:39:00;;;;;;;5.45;0.75;;;12.40;99.90;;;;;;5053488;28;20485;-75
2022/09/14 08:41:39;;;;;;;1.60;0.60;;;12.40;99.90;;;;;;5055825;28;20029;-75
2022/09/14 08:44:29;;;;;;;5.03;0.80;;;12.30;99.90;;;;;;5053351;28;20374;-75
2022/09/14 08:47:02;;;;;;;2.10;0.85;;;12.30;99.90;;;;;;5055451;28;20505;-75
2022/09/14 08:49:56;;;;;;;2.13;0.55;;;12.20;99.90;;;;;;5055568;28;20044;-75
2022/09/14 08:52:32;;;;;;;2.50;0.75;;;12.10;99.90;;;;;;5053533;28;20033;-77
2022/09/14 08:55:21;;;;;;;2.53;0.70;;;12.00;99.90;;;;;;5054461;28;20100;-76
2022/09/14 08:58:11;;;;;;;3.80;0.85;;;12.00;99.90;;;;;;5054227;28;20021;-75
2022/09/14 09:00:51;;;;;;;1.23;0.60;;;11.90;99.90;;;;;;5053143;28;20021;-76
2022/09/14 09:03:24;;;;;;;1.52;0.73;;;11.80;99.90;;;;;;5054809;28;20429;-75
2022/09/14 09:05:57;;;;;;;1.30;0.60;;;11.80;99.90;;;;;;5055099;28;20103;-76
2022/09/14 09:08:38;;;;;;;1.70;0.65;;;11.70;99.90;;;;;;5055275;28;20032;-75
2022/09/14 09:11:14;;;;;;;2.88;0.73;;;11.70;99.90;;;;;;5038105;28;20018;-75
2022/09/14 09:13:44;;;;;;;2.55;0.70;;;11.60;99.90;;;;;;5036269;28;20417;-75
2022/09/14 09:16:15;;;;;;;5.05;0.75;;;11.60;99.90;;;;;;5034876;28;20033;-76
2022/09/14 09:18:54;;;;;;;0.77;0.60;;;11.40;99.90;;;;;;5038975;28;20067;-75
2022/09/14 09:21:29;;;;;;;6.25;0.80;;;11.50;99.90;;;;;;5036152;28;20018;-77
2022/09/14 09:24:20;;;;;;;2.03;0.68;;;11.40;99.90;;;;;;5036212;28;20017;-76
2022/09/14 09:26:47;;;;;;;2.10;0.70;;;11.40;99.90;;;;;;5035718;28;20025;-77
2022/09/14 09:29:15;;;;;;;1.65;0.70;;;11.30;99.90;;;;;;5034979;28;20026;-75
2022/09/14 09:31:49;;;;;;;5.25;1.05;;;11.30;99.90;;;;;;5034550;28;20571;-76
2022/09/14 09:34:22;;;;;;;2.13;0.77;;;11.30;99.90;;;;;;5035625;28;20024;-76
2022/09/14 09:36:50;;;;;;;2.17;0.80;;;11.20;99.90;;;;;;5035296;28;20176;-77
2022/09/14 09:39:18;;;;;;;3.05;1.90;;;11.30;99.90;;;;;;5035364;28;20355;-76
2022/09/14 09:41:58;;;;;;;7.28;2.13;;;11.20;99.90;;;;;;5034505;28;20029;-76
2022/09/14 09:44:26;;;;;;;1.92;1.15;;;11.20;99.90;;;;;;5035181;28;20060;-76
2022/09/14 09:46:57;;;;;;;2.17;1.60;;;11.20;99.90;;;;;;5035576;28;20413;-77
2022/09/14 09:49:30;;;;;;;3.90;2.00;;;11.20;99.90;;;;;;5035635;28;20179;-76
2022/09/14 09:52:18;;;;;;;6.60;3.10;;;11.20;99.90;;;;;;5034504;28;20428;-77
2022/09/14 09:54:55;;;;;;;4.22;1.67;;;11.20;99.90;;;;;;5034539;28;20063;-76
2022/09/14 09:57:23;;;;;;;5.45;0.75;;;11.30;99.90;;;;;;5034596;28;20014;-77
2022/09/14 09:59:50;;;;;;;3.50;1.40;;;11.30;99.90;;;;;;5035775;28;20021;-77
2022/09/14 10:02:23;;;;;;;1.75;0.75;;;11.30;99.90;;;;;;5035080;28;20052;-76
2022/09/14 10:05:13;;;;;;;1.83;0.57;;;11.30;99.90;;;;;;5035646;28;20617;-75
2022/09/14 10:08:01;;;;;;;4.80;1.00;;;11.20;99.90;;;;;;5034263;28;20041;-76
2022/09/14 10:10:38;;;;;;;0.90;0.50;;;11.20;99.90;;;;;;5033423;28;20143;-76
2022/09/14 10:13:15;;;;;;;8.70;1.02;;;11.20;99.90;;;;;;5036891;28;20030;-77
2022/09/14 10:15:43;;;;;;;1.98;0.65;;;11.10;99.90;;;;;;5032658;28;20028;-76
2022/09/14 10:18:13;;;;;;;3.83;0.70;;;11.10;99.90;;;;;;5036264;28;20029;-75
2022/09/14 10:20:53;;;;;;;4.50;0.90;;;11.10;99.90;;;;;;5033535;28;20021;-76
2022/09/14 10:23:20;;;;;;;2.03;0.65;;;11.10;99.90;;;;;;5034627;28;20406;-76
2022/09/14 10:26:11;;;;;;;2.38;0.80;;;11.00;99.90;;;;;;5033154;28;20052;-75
2022/09/14 10:28:43;;;;;;;4.63;0.70;;;11.10;99.90;;;;;;5034401;28;20051;-76
2022/09/14 10:31:22;;;;;;;6.65;0.90;;;11.10;99.90;;;;;;5034003;28;20024;-76
2022/09/14 10:33:55;;;;;;;4.47;0.70;;;11.00;99.90;;;;;;5033546;28;20136;-75
2022/09/14 10:36:26;;;;;;;1.17;0.70;;;10.90;99.90;;;;;;5033775;28;20025;-77
2022/09/14 10:39:07;;;;;;;1.40;0.60;;;11.00;99.90;;;;;;5034996;28;20060;-75
2022/09/14 10:41:50;;;;;;;2.53;0.63;;;11.00;99.90;;;;;;5041229;28;20020;-77
2022/09/14 10:44:44;;;;;;;3.78;1.30;;;11.00;99.90;;;;;;5031241;28;20413;-77
2022/09/14 10:47:34;;;;;;;2.90;1.05;;;11.00;99.90;;;;;;5034712;28;20032;-76
2022/09/14 10:50:10;;;;;;;1.45;0.98;;;10.90;99.90;;;;;;5032957;28;20075;-77
2022/09/14 10:52:38;;;;;;;2.38;1.00;;;10.90;99.90;;;;;;5032936;28;20108;-77
2022/09/14 10:55:42;;;;;;;2.45;1.00;;;10.90;99.90;;;;;;5031530;28;20013;-78
2022/09/14 10:58:43;;;;;;;3.65;0.80;;;10.80;99.90;;;;;;5031050;28;20017;-76
2022/09/14 11:01:29;;;;;;;6.07;1.50;;;10.80;99.90;;;;;;5048017;28;20033;-76
2022/09/14 11:04:15;;;;;;;4.43;0.63;;;10.80;99.90;;;;;;5046277;28;20495;-77
2022/09/14 11:07:03;;;;;;;1.38;0.60;;;10.80;99.90;;;;;;5032663;28;20474;-75
2022/09/14 11:09:37;;;;;;;2.05;1.00;;;10.80;99.90;;;;;;5030930;28;20429;-76
2022/09/14 11:12:52;;;;;;;2.75;0.90;;;10.80;99.90;;;;;;5033338;28;20223;-75
2022/09/14 11:15:37;;;;;;;1.77;0.93;;;10.80;99.90;;;;;;5032657;28;20083;-77
2022/09/14 11:18:13;;;;;;;3.42;0.90;;;10.70;99.90;;;;;;5035652;28;20065;-76
2022/09/14 11:20:40;;;;;;;;;;;10.70;99.90;;;;;;5037168;28;20017;-77
2022/09/14 11:23:48;;;;;;;2.40;1.17;;;10.70;99.90;;;;;;5035989;28;19969;-76
2022/09/14 11:26:25;;;;;;;2.53;0.68;;;10.70;99.90;;;;;;5050355;28;20414;-76
2022/09/14 11:29:02;;;;;;;2.35;0.75;;;10.70;99.90;;;;;;5035225;28;20017;-76
2022/09/14 11:31:48;;;;;;;2.08;0.70;;;10.70;99.90;;;;;;5035772;28;20022;-75
2022/09/14 11:34:45;;;;;;;3.40;1.13;;;10.70;99.90;;;;;;5036555;28;20098;-75
2022/09/14 11:37:17;;;;;;;1.00;0.73;;;10.70;99.90;;;;;;5038699;28;20075;-76
2022/09/14 11:40:01;;;;;;;1.38;0.70;;;10.70;99.90;;;;;;5038437;28;20481;-76
2022/09/14 11:42:43;;;;;;;2.85;0.98;;;10.70;99.90;;;;;;5035142;28;20029;-75
2022/09/14 11:45:27;;;;;;;1.13;0.95;;;10.70;99.90;;;;;;5033188;28;20378;-75
2022/09/14 11:48:21;;;;;;;1.20;0.65;;;10.60;99.90;;;;;;5036729;28;20140;-76
2022/09/14 11:50:50;;;;;;;3.45;0.73;;;10.60;99.90;;;;;;5037575;28;20025;-76
2022/09/14 11:53:19;;;;;;;6.00;1.02;;;10.60;99.90;;;;;;5035525;28;20079;-76
2022/09/14 11:55:49;;;;;;;2.75;1.58;;;10.60;99.90;;;;;;5036628;28;20009;-76
2022/09/14 11:58:31;;;;;;;2.17;0.90;;;10.60;99.90;;;;;;5032588;28;20386;-76
2022/09/14 12:01:02;;;;;;;3.17;0.98;;;10.60;99.90;;;;;;5033542;28;20017;-75
2022/09/14 12:04:00;;;;;;;2.88;0.75;;;10.60;99.90;;;;;;5034649;28;20388;-76
2022/09/14 12:06:31;;;;;;;3.38;0.60;;;10.60;99.90;;;;;;5033455;28;20033;-77
2022/09/14 12:09:20;;;;;;;0.68;0.50;;;10.60;99.90;;;;;;5050111;28;20017;-77
2022/09/14 12:11:57;;;;;;;2.95;0.93;;;10.60;99.90;;;;;;5036783;28;20024;-76
2022/09/14 12:14:29;;;;;;;2.55;1.00;;;10.50;99.90;;;;;;5033992;28;20022;-75
2022/09/14 12:17:22;;;;;;;2.88;0.95;;;10.60;99.90;;;;;;5033273;28;20052;-75
2022/09/14 12:19:52;;;;;;;4.72;0.77;;;10.60;99.90;;;;;;5033537;28;20012;-77
2022/09/14 12:22:37;;;;;;;3.67;1.20;;;10.50;99.90;;;;;;5033115;28;20108;-75
2022/09/14 12:25:19;;;;;;;1.48;0.70;;;10.50;99.90;;;;;;5034296;28;20017;-77
2022/09/14 12:27:49;;;;;;;7.25;0.88;;;10.50;99.90;;;;;;5036916;28;20082;-77
2022/09/14 12:30:41;;;;;;;1.73;0.90;;;10.50;99.90;;;;;;5034607;28;20080;-76
2022/09/14 12:33:30;;;;;;;3.75;0.93;;;10.50;99.90;;;;;;5032464;28;20029;-77
2022/09/14 12:35:58;;;;;;;6.75;0.88;;;10.50;99.90;;;;;;5036261;28;20037;-75
2022/09/14 12:38:54;;;;;;;1.15;0.75;;;10.50;99.90;;;;;;5033648;28;20048;-77
2022/09/14 12:41:21;;;;;;;1.85;0.77;;;10.50;99.90;;;;;;5034846;28;20517;-75
2022/09/14 12:43:53;;;;;;;4.47;0.95;;;10.50;99.90;;;;;;5034334;28;20024;-76
2022/09/14 12:46:21;;;;;;;2.55;0.93;;;10.50;99.90;;;;;;5038233;28;20106;-76
2022/09/14 12:48:54;;;;;;;5.70;1.42;;;10.50;99.90;;;;;;5039006;28;20028;-77
2022/09/14 12:51:29;;;;;;;1.80;0.65;;;10.40;99.90;;;;;;5039029;28;20037;-76
2022/09/14 12:54:02;;;;;;;1.40;0.70;;;10.50;99.90;;;;;;5037952;28;20024;-77
2022/09/14 12:57:06;;;;;;;1.42;0.82;;;10.50;99.90;;;;;;5042095;28;20037;-75
2022/09/14 12:59:51;;;;;;;2.63;1.35;;;10.50;99.90;;;;;;5040752;28;20024;-76
2022/09/14 13:02:50;;;;;;;1.65;0.82;;;10.50;99.90;;;;;;5039228;28;20029;-77
2022/09/14 13:05:24;;;;;;;5.28;0.80;;;10.50;99.90;;;;;;5037929;28;20109;-77
2022/09/14 13:07:52;;;;;;;2.65;0.73;;;10.40;99.90;;;;;;5039331;28;20469;-77
2022/09/14 13:10:31;;;;;;;1.70;1.02;;;10.40;99.90;;;;;;5039289;28;20032;-76
2022/09/14 13:13:02;;;;;;;1.95;0.90;;;10.40;99.90;;;;;;5048112;28;20032;-75
2022/09/14 13:15:36;;;;;;;2.88;0.90;;;10.40;99.90;;;;;;5040482;28;20496;-77
2022/09/14 13:18:34;;;;;;;3.50;0.82;;;10.40;99.90;;;;;;5039916;28;20501;-78
2022/09/14 13:21:17;;;;;;;3.42;1.00;;;10.40;99.90;;;;;;5037689;28;20108;-76
2022/09/14 13:23:44;;;;;;;3.55;1.17;;;10.50;99.90;;;;;;5038820;28;20025;-75
2022/09/14 13:26:21;;;;;;;1.55;0.80;;;10.50;99.90;;;;;;5039946;28;20033;-75